sensor_id;sensor_type;location;lat;lon;timestamp;P1;durP1;ratioP1;P2;durP2;ratioP2
15788;SDS011;59075;50.670;6.474;2022-08-01T05:01:13;866.33;;;806.80;;
15788;SDS011;59075;50.670;6.474;2022-08-01T05:03:40;866.13;;;806.57;;
15788;SDS011;59075;50.670;6.474;2022-08-01T05:06:07;866.00;;;806.80;;
15788;SDS011;59075;50.670;6.474;2022-08-01T05:08:34;864.27;;;804.90;;
15788;SDS011;59075;50.670;6.474;2022-08-01T05:11:01;871.67;;;811.63;;
15788;SDS011;59075;50.670;6.474;2022-08-01T05:13:28;867.37;;;807.90;;
15788;SDS011;59075;50.670;6.474;2022-08-01T05:15:55;862.30;;;803.00;;
15788;SDS011;59075;50.670;6.474;2022-08-01T05:18:23;862.63;;;803.23;;
15788;SDS011;59075;50.670;6.474;2022-08-01T05:20:51;858.57;;;799.47;;
15788;SDS011;59075;50.670;6.474;2022-08-01T05:23:18;855.73;;;796.50;;
15788;SDS011;59075;50.670;6.474;2022-08-01T05:25:45;863.80;;;804.40;;
15788;SDS011;59075;50.670;6.474;2022-08-01T05:28:11;855.17;;;796.20;;
15788;SDS011;59075;50.670;6.474;2022-08-01T05:30:38;850.67;;;791.87;;
15788;SDS011;59075;50.670;6.474;2022-08-01T05:33:05;864.00;;;804.30;;
15788;SDS011;59075;50.670;6.474;2022-08-01T05:35:33;858.27;;;799.03;;
15788;SDS011;59075;50.670;6.474;2022-08-01T05:38:00;861.00;;;801.73;;
15788;SDS011;59075;50.670;6.474;2022-08-01T05:40:27;855.73;;;796.50;;
15788;SDS011;59075;50.670;6.474;2022-08-01T05:42:54;863.23;;;803.97;;
15788;SDS011;59075;50.670;6.474;2022-08-01T05:45:20;857.43;;;798.40;;
15788;SDS011;59075;50.670;6.474;2022-08-01T05:47:47;860.20;;;800.93;;
15788;SDS011;59075;50.670;6.474;2022-08-01T05:50:14;867.93;;;808.33;;
15788;SDS011;59075;50.670;6.474;2022-08-01T05:52:42;870.20;;;810.00;;
15788;SDS011;59075;50.670;6.474;2022-08-01T05:55:09;874.40;;;814.30;;
15788;SDS011;59075;50.670;6.474;2022-08-01T05:57:35;879.23;;;818.67;;
15788;SDS011;59075;50.670;6.474;2022-08-01T06:00:03;874.07;;;814.23;;
15788;SDS011;59075;50.670;6.474;2022-08-01T06:02:30;870.97;;;811.40;;
15788;SDS011;59075;50.670;6.474;2022-08-01T06:04:57;875.03;;;815.17;;
15788;SDS011;59075;50.670;6.474;2022-08-01T06:07:24;863.17;;;803.90;;
15788;SDS011;59075;50.670;6.474;2022-08-01T06:09:52;872.03;;;812.37;;
15788;SDS011;59075;50.670;6.474;2022-08-01T06:12:18;875.03;;;815.03;;
15788;SDS011;59075;50.670;6.474;2022-08-01T06:14:45;874.13;;;814.10;;
15788;SDS011;59075;50.670;6.474;2022-08-01T06:17:12;872.77;;;812.93;;
15788;SDS011;59075;50.670;6.474;2022-08-01T06:19:38;871.80;;;812.10;;
15788;SDS011;59075;50.670;6.474;2022-08-01T06:22:05;880.23;;;819.77;;
15788;SDS011;59075;50.670;6.474;2022-08-01T06:24:32;877.00;;;816.77;;
15788;SDS011;59075;50.670;6.474;2022-08-01T06:27:01;877.00;;;816.93;;
15788;SDS011;59075;50.670;6.474;2022-08-01T06:29:29;870.63;;;810.67;;
15788;SDS011;59075;50.670;6.474;2022-08-01T06:31:59;866.57;;;806.90;;
15788;SDS011;59075;50.670;6.474;2022-08-01T06:34:26;876.27;;;816.23;;
15788;SDS011;59075;50.670;6.474;2022-08-01T06:36:53;875.23;;;815.30;;
15788;SDS011;59075;50.670;6.474;2022-08-01T06:39:20;884.47;;;823.73;;
15788;SDS011;59075;50.670;6.474;2022-08-01T06:41:47;871.57;;;811.70;;
15788;SDS011;59075;50.670;6.474;2022-08-01T06:44:15;874.77;;;814.93;;
15788;SDS011;59075;50.670;6.474;2022-08-01T06:46:41;887.60;;;827.10;;
15788;SDS011;59075;50.670;6.474;2022-08-01T06:49:08;884.07;;;823.30;;
15788;SDS011;59075;50.670;6.474;2022-08-01T06:51:35;876.30;;;816.07;;
15788;SDS011;59075;50.670;6.474;2022-08-01T06:54:02;881.17;;;821.07;;
15788;SDS011;59075;50.670;6.474;2022-08-01T06:56:29;878.67;;;818.60;;
15788;SDS011;59075;50.670;6.474;2022-08-01T06:58:56;873.20;;;813.10;;
15788;SDS011;59075;50.670;6.474;2022-08-01T07:01:27;880.77;;;820.73;;
15788;SDS011;59075;50.670;6.474;2022-08-01T07:03:53;867.93;;;808.23;;
15788;SDS011;59075;50.670;6.474;2022-08-01T07:06:21;871.37;;;811.30;;
15788;SDS011;59075;50.670;6.474;2022-08-01T07:08:48;870.87;;;811.17;;
15788;SDS011;59075;50.670;6.474;2022-08-01T07:11:15;864.87;;;805.20;;
15788;SDS011;59075;50.670;6.474;2022-08-01T07:13:42;857.40;;;798.20;;
15788;SDS011;59075;50.670;6.474;2022-08-01T07:16:10;867.60;;;807.67;;
15788;SDS011;59075;50.670;6.474;2022-08-01T07:18:38;866.80;;;807.10;;
15788;SDS011;59075;50.670;6.474;2022-08-01T07:21:05;864.03;;;804.53;;
15788;SDS011;59075;50.670;6.474;2022-08-01T07:23:33;866.13;;;806.53;;
15788;SDS011;59075;50.670;6.474;2022-08-01T07:26:00;869.63;;;809.83;;
15788;SDS011;59075;50.670;6.474;2022-08-01T07:28:27;864.40;;;804.73;;
15788;SDS011;59075;50.670;6.474;2022-08-01T07:30:54;863.93;;;804.60;;
15788;SDS011;59075;50.670;6.474;2022-08-01T07:33:22;867.07;;;807.47;;
15788;SDS011;59075;50.670;6.474;2022-08-01T07:35:51;867.93;;;808.27;;
15788;SDS011;59075;50.670;6.474;2022-08-01T07:38:17;866.33;;;806.77;;
15788;SDS011;59075;50.670;6.474;2022-08-01T07:40:44;876.13;;;816.20;;
15788;SDS011;59075;50.670;6.474;2022-08-01T07:43:11;871.23;;;811.30;;
15788;SDS011;59075;50.670;6.474;2022-08-01T07:45:38;872.30;;;812.20;;
15788;SDS011;59075;50.670;6.474;2022-08-01T07:48:06;868.00;;;808.03;;
15788;SDS011;59075;50.670;6.474;2022-08-01T07:50:33;868.23;;;808.53;;
15788;SDS011;59075;50.670;6.474;2022-08-01T07:53:02;868.07;;;808.10;;
15788;SDS011;59075;50.670;6.474;2022-08-01T07:55:29;874.43;;;814.43;;
15788;SDS011;59075;50.670;6.474;2022-08-01T07:57:56;869.07;;;809.50;;
15788;SDS011;59075;50.670;6.474;2022-08-01T08:00:23;871.20;;;811.47;;
15788;SDS011;59075;50.670;6.474;2022-08-01T08:02:50;875.10;;;815.20;;
15788;SDS011;59075;50.670;6.474;2022-08-01T08:05:16;870.97;;;811.20;;
15788;SDS011;59075;50.670;6.474;2022-08-01T08:07:44;871.20;;;811.40;;
15788;SDS011;59075;50.670;6.474;2022-08-01T08:10:12;878.43;;;818.33;;
15788;SDS011;59075;50.670;6.474;2022-08-01T08:12:39;872.10;;;812.23;;
15788;SDS011;59075;50.670;6.474;2022-08-01T08:15:06;865.93;;;806.20;;
15788;SDS011;59075;50.670;6.474;2022-08-01T08:17:33;864.40;;;804.63;;
15788;SDS011;59075;50.670;6.474;2022-08-01T08:20:00;888.07;;;827.60;;
15788;SDS011;59075;50.670;6.474;2022-08-01T08:22:27;867.83;;;808.13;;
15788;SDS011;59075;50.670;6.474;2022-08-01T08:24:54;873.03;;;812.97;;
15788;SDS011;59075;50.670;6.474;2022-08-01T08:27:22;870.23;;;810.50;;
15788;SDS011;59075;50.670;6.474;2022-08-01T08:29:48;869.47;;;809.77;;
15788;SDS011;59075;50.670;6.474;2022-08-01T08:32:15;877.27;;;817.07;;
15788;SDS011;59075;50.670;6.474;2022-08-01T08:34:42;869.37;;;809.60;;
15788;SDS011;59075;50.670;6.474;2022-08-01T08:37:09;871.43;;;811.70;;
15788;SDS011;59075;50.670;6.474;2022-08-01T08:39:36;877.93;;;817.97;;
15788;SDS011;59075;50.670;6.474;2022-08-01T08:42:05;873.83;;;813.63;;
15788;SDS011;59075;50.670;6.474;2022-08-01T08:44:34;874.40;;;814.20;;
15788;SDS011;59075;50.670;6.474;2022-08-01T08:47:02;874.50;;;814.57;;
15788;SDS011;59075;50.670;6.474;2022-08-01T08:49:32;880.00;;;820.03;;
15788;SDS011;59075;50.670;6.474;2022-08-01T08:51:59;871.73;;;811.97;;
15788;SDS011;59075;50.670;6.474;2022-08-01T08:54:28;882.57;;;822.37;;
15788;SDS011;59075;50.670;6.474;2022-08-01T08:56:56;885.13;;;824.60;;
15788;SDS011;59075;50.670;6.474;2022-08-01T08:59:24;891.37;;;830.57;;
15788;SDS011;59075;50.670;6.474;2022-08-01T09:01:52;888.30;;;827.77;;
15788;SDS011;59075;50.670;6.474;2022-08-01T09:04:20;885.03;;;824.57;;
15788;SDS011;59075;50.670;6.474;2022-08-01T09:06:48;880.27;;;820.07;;
15788;SDS011;59075;50.670;6.474;2022-08-01T09:09:15;891.90;;;830.57;;
15788;SDS011;59075;50.670;6.474;2022-08-01T09:11:42;884.43;;;824.20;;
15788;SDS011;59075;50.670;6.474;2022-08-01T09:14:10;883.90;;;823.50;;
15788;SDS011;59075;50.670;6.474;2022-08-01T09:16:40;891.43;;;830.73;;
15788;SDS011;59075;50.670;6.474;2022-08-01T09:19:11;890.20;;;828.73;;
15788;SDS011;59075;50.670;6.474;2022-08-01T09:21:40;886.27;;;825.70;;
15788;SDS011;59075;50.670;6.474;2022-08-01T09:24:20;883.37;;;822.87;;
15788;SDS011;59075;50.670;6.474;2022-08-01T09:26:47;887.07;;;826.60;;
15788;SDS011;59075;50.670;6.474;2022-08-01T09:29:19;892.57;;;830.97;;
15788;SDS011;59075;50.670;6.474;2022-08-01T09:31:46;886.17;;;825.77;;
15788;SDS011;59075;50.670;6.474;2022-08-01T09:34:15;892.03;;;831.47;;
15788;SDS011;59075;50.670;6.474;2022-08-01T09:36:49;890.07;;;829.27;;
15788;SDS011;59075;50.670;6.474;2022-08-01T09:39:18;887.37;;;826.03;;
15788;SDS011;59075;50.670;6.474;2022-08-01T09:41:46;891.13;;;830.33;;
15788;SDS011;59075;50.670;6.474;2022-08-01T09:44:13;888.47;;;827.70;;
15788;SDS011;59075;50.670;6.474;2022-08-01T09:46:51;888.77;;;827.93;;
15788;SDS011;59075;50.670;6.474;2022-08-01T09:49:30;892.13;;;830.57;;
15788;SDS011;59075;50.670;6.474;2022-08-01T09:51:59;883.37;;;822.97;;
15788;SDS011;59075;50.670;6.474;2022-08-01T09:54:36;884.50;;;824.03;;
15788;SDS011;59075;50.670;6.474;2022-08-01T09:57:07;885.80;;;825.27;;
15788;SDS011;59075;50.670;6.474;2022-08-01T09:59:35;889.27;;;828.63;;
15788;SDS011;59075;50.670;6.474;2022-08-01T10:02:05;890.83;;;829.97;;
15788;SDS011;59075;50.670;6.474;2022-08-01T10:04:33;892.40;;;831.60;;
15788;SDS011;59075;50.670;6.474;2022-08-01T10:07:04;890.60;;;829.93;;
15788;SDS011;59075;50.670;6.474;2022-08-01T10:09:32;880.73;;;820.40;;
15788;SDS011;59075;50.670;6.474;2022-08-01T10:12:00;884.13;;;823.87;;
15788;SDS011;59075;50.670;6.474;2022-08-01T10:14:27;888.40;;;827.87;;
15788;SDS011;59075;50.670;6.474;2022-08-01T10:16:57;895.23;;;834.37;;
15788;SDS011;59075;50.670;6.474;2022-08-01T10:19:27;897.50;;;836.37;;
15788;SDS011;59075;50.670;6.474;2022-08-01T10:21:57;892.23;;;831.40;;
15788;SDS011;59075;50.670;6.474;2022-08-01T10:24:24;885.97;;;825.47;;
15788;SDS011;59075;50.670;6.474;2022-08-01T10:26:55;893.97;;;833.10;;
15788;SDS011;59075;50.670;6.474;2022-08-01T10:29:24;881.30;;;821.07;;
15788;SDS011;59075;50.670;6.474;2022-08-01T10:31:52;883.63;;;823.40;;
15788;SDS011;59075;50.670;6.474;2022-08-01T10:34:20;886.03;;;825.60;;
15788;SDS011;59075;50.670;6.474;2022-08-01T10:36:47;891.00;;;830.23;;
15788;SDS011;59075;50.670;6.474;2022-08-01T10:39:15;892.23;;;830.63;;
15788;SDS011;59075;50.670;6.474;2022-08-01T10:41:43;905.80;;;844.30;;
15788;SDS011;59075;50.670;6.474;2022-08-01T10:44:11;887.03;;;826.47;;
15788;SDS011;59075;50.670;6.474;2022-08-01T10:46:38;889.80;;;829.17;;
15788;SDS011;59075;50.670;6.474;2022-08-01T10:49:09;911.83;;;849.53;;
15788;SDS011;59075;50.670;6.474;2022-08-01T10:51:38;897.67;;;836.77;;
15788;SDS011;59075;50.670;6.474;2022-08-01T10:54:07;889.00;;;828.40;;
15788;SDS011;59075;50.670;6.474;2022-08-01T10:56:40;896.23;;;835.03;;
15788;SDS011;59075;50.670;6.474;2022-08-01T10:59:10;912.97;;;850.17;;
15788;SDS011;59075;50.670;6.474;2022-08-01T11:01:45;891.47;;;830.73;;
15788;SDS011;59075;50.670;6.474;2022-08-01T11:04:24;903.03;;;841.80;;
15788;SDS011;59075;50.670;6.474;2022-08-01T11:07:03;893.27;;;832.40;;
15788;SDS011;59075;50.670;6.474;2022-08-01T11:09:37;896.23;;;835.37;;
15788;SDS011;59075;50.670;6.474;2022-08-01T11:12:08;891.03;;;830.37;;
15788;SDS011;59075;50.670;6.474;2022-08-01T11:17:42;890.07;;;829.33;;
15788;SDS011;59075;50.670;6.474;2022-08-01T11:20:13;893.27;;;832.50;;
15788;SDS011;59075;50.670;6.474;2022-08-01T11:28:42;891.60;;;831.03;;
15788;SDS011;59075;50.670;6.474;2022-08-01T11:31:27;874.40;;;814.67;;
15788;SDS011;59075;50.670;6.474;2022-08-01T11:33:54;875.17;;;815.40;;
15788;SDS011;59075;50.670;6.474;2022-08-01T11:36:21;892.33;;;831.63;;
15788;SDS011;59075;50.670;6.474;2022-08-01T11:39:10;888.03;;;827.43;;
15788;SDS011;59075;50.670;6.474;2022-08-01T11:41:46;898.20;;;837.33;;
15788;SDS011;59075;50.670;6.474;2022-08-01T11:44:15;903.50;;;842.33;;
15788;SDS011;59075;50.670;6.474;2022-08-01T11:46:46;902.23;;;841.23;;
15788;SDS011;59075;50.670;6.474;2022-08-01T11:49:28;891.93;;;831.20;;
15788;SDS011;59075;50.670;6.474;2022-08-01T11:52:02;890.43;;;829.77;;
15788;SDS011;59075;50.670;6.474;2022-08-01T11:54:33;903.90;;;842.80;;
15788;SDS011;59075;50.670;6.474;2022-08-01T11:57:00;902.47;;;841.20;;
15788;SDS011;59075;50.670;6.474;2022-08-01T11:59:31;894.73;;;833.83;;
15788;SDS011;59075;50.670;6.474;2022-08-01T12:02:02;899.10;;;838.10;;
15788;SDS011;59075;50.670;6.474;2022-08-01T12:04:43;895.10;;;834.40;;
15788;SDS011;59075;50.670;6.474;2022-08-01T12:07:11;891.70;;;831.17;;
15788;SDS011;59075;50.670;6.474;2022-08-01T12:09:40;892.50;;;831.87;;
15788;SDS011;59075;50.670;6.474;2022-08-01T12:12:07;898.17;;;837.07;;
15788;SDS011;59075;50.670;6.474;2022-08-01T12:14:35;891.70;;;830.93;;
15788;SDS011;59075;50.670;6.474;2022-08-01T12:17:02;897.30;;;836.33;;
15788;SDS011;59075;50.670;6.474;2022-08-01T12:19:28;903.60;;;842.17;;
15788;SDS011;59075;50.670;6.474;2022-08-01T12:22:05;903.87;;;842.43;;
15788;SDS011;59075;50.670;6.474;2022-08-01T12:24:33;903.83;;;842.80;;
15788;SDS011;59075;50.670;6.474;2022-08-01T12:27:01;903.57;;;842.30;;
15788;SDS011;59075;50.670;6.474;2022-08-01T12:29:32;907.37;;;846.00;;
15788;SDS011;59075;50.670;6.474;2022-08-01T12:32:03;906.53;;;845.13;;
15788;SDS011;59075;50.670;6.474;2022-08-01T12:34:30;903.67;;;842.30;;
15788;SDS011;59075;50.670;6.474;2022-08-01T12:36:59;911.73;;;850.00;;
15788;SDS011;59075;50.670;6.474;2022-08-01T12:39:34;899.27;;;838.40;;
15788;SDS011;59075;50.670;6.474;2022-08-01T12:42:02;906.93;;;845.53;;
15788;SDS011;59075;50.670;6.474;2022-08-01T12:44:31;904.53;;;843.27;;
15788;SDS011;59075;50.670;6.474;2022-08-01T12:46:59;894.53;;;833.60;;
15788;SDS011;59075;50.670;6.474;2022-08-01T12:49:27;906.20;;;845.03;;
15788;SDS011;59075;50.670;6.474;2022-08-01T12:51:54;905.37;;;843.97;;
15788;SDS011;59075;50.670;6.474;2022-08-01T12:54:21;899.87;;;838.97;;
15788;SDS011;59075;50.670;6.474;2022-08-01T12:56:50;903.27;;;842.20;;
15788;SDS011;59075;50.670;6.474;2022-08-01T12:59:23;913.13;;;850.80;;
15788;SDS011;59075;50.670;6.474;2022-08-01T13:01:51;891.43;;;830.60;;
15788;SDS011;59075;50.670;6.474;2022-08-01T13:04:19;904.87;;;843.57;;
15788;SDS011;59075;50.670;6.474;2022-08-01T13:06:46;897.40;;;836.40;;
15788;SDS011;59075;50.670;6.474;2022-08-01T13:09:13;906.43;;;844.57;;
15788;SDS011;59075;50.670;6.474;2022-08-01T13:11:40;891.20;;;830.20;;
15788;SDS011;59075;50.670;6.474;2022-08-01T13:14:08;884.20;;;823.83;;
15788;SDS011;59075;50.670;6.474;2022-08-01T13:16:46;905.70;;;844.23;;
15788;SDS011;59075;50.670;6.474;2022-08-01T13:19:13;890.77;;;829.73;;
15788;SDS011;59075;50.670;6.474;2022-08-01T13:21:54;891.80;;;830.63;;
15788;SDS011;59075;50.670;6.474;2022-08-01T13:24:23;892.43;;;831.40;;
15788;SDS011;59075;50.670;6.474;2022-08-01T13:26:52;889.87;;;829.17;;
15788;SDS011;59075;50.670;6.474;2022-08-01T13:29:22;892.53;;;831.37;;
15788;SDS011;59075;50.670;6.474;2022-08-01T13:31:56;895.33;;;834.23;;
15788;SDS011;59075;50.670;6.474;2022-08-01T13:34:29;885.17;;;824.87;;
15788;SDS011;59075;50.670;6.474;2022-08-01T13:36:56;886.67;;;826.20;;
15788;SDS011;59075;50.670;6.474;2022-08-01T13:39:23;885.97;;;825.63;;
15788;SDS011;59075;50.670;6.474;2022-08-01T13:42:09;887.20;;;826.63;;
15788;SDS011;59075;50.670;6.474;2022-08-01T13:44:37;884.77;;;824.40;;
15788;SDS011;59075;50.670;6.474;2022-08-01T13:47:05;888.83;;;828.23;;
15788;SDS011;59075;50.670;6.474;2022-08-01T13:49:33;884.03;;;823.70;;
15788;SDS011;59075;50.670;6.474;2022-08-01T13:52:00;894.03;;;833.17;;
15788;SDS011;59075;50.670;6.474;2022-08-01T13:54:28;888.87;;;828.23;;
15788;SDS011;59075;50.670;6.474;2022-08-01T13:56:54;886.93;;;826.47;;
15788;SDS011;59075;50.670;6.474;2022-08-01T13:59:21;895.30;;;833.87;;
15788;SDS011;59075;50.670;6.474;2022-08-01T14:01:48;883.80;;;823.43;;
15788;SDS011;59075;50.670;6.474;2022-08-01T14:04:16;889.60;;;829.10;;
15788;SDS011;59075;50.670;6.474;2022-08-01T14:06:43;892.73;;;832.10;;
15788;SDS011;59075;50.670;6.474;2022-08-01T14:09:10;898.77;;;837.17;;
15788;SDS011;59075;50.670;6.474;2022-08-01T14:11:37;885.27;;;824.93;;
15788;SDS011;59075;50.670;6.474;2022-08-01T14:14:04;899.00;;;838.00;;
15788;SDS011;59075;50.670;6.474;2022-08-01T14:16:31;888.03;;;827.70;;
15788;SDS011;59075;50.670;6.474;2022-08-01T14:18:58;893.37;;;832.77;;
15788;SDS011;59075;50.670;6.474;2022-08-01T14:21:26;889.73;;;829.23;;
15788;SDS011;59075;50.670;6.474;2022-08-01T14:23:52;880.47;;;820.27;;
15788;SDS011;59075;50.670;6.474;2022-08-01T14:26:19;884.77;;;824.40;;
15788;SDS011;59075;50.670;6.474;2022-08-01T14:28:46;894.50;;;833.43;;
15788;SDS011;59075;50.670;6.474;2022-08-01T14:31:12;903.87;;;842.77;;
15788;SDS011;59075;50.670;6.474;2022-08-01T14:33:39;896.83;;;835.93;;
15788;SDS011;59075;50.670;6.474;2022-08-01T14:36:06;899.93;;;839.07;;
15788;SDS011;59075;50.670;6.474;2022-08-01T14:38:34;890.47;;;829.77;;
15788;SDS011;59075;50.670;6.474;2022-08-01T14:41:01;902.53;;;841.40;;
15788;SDS011;59075;50.670;6.474;2022-08-01T14:43:28;894.67;;;833.80;;
15788;SDS011;59075;50.670;6.474;2022-08-01T14:45:56;893.03;;;832.33;;
15788;SDS011;59075;50.670;6.474;2022-08-01T14:48:23;893.63;;;832.73;;
15788;SDS011;59075;50.670;6.474;2022-08-01T14:50:50;892.07;;;831.43;;
15788;SDS011;59075;50.670;6.474;2022-08-01T14:53:16;899.60;;;838.63;;
15788;SDS011;59075;50.670;6.474;2022-08-01T14:55:44;898.73;;;837.73;;
15788;SDS011;59075;50.670;6.474;2022-08-01T14:58:11;893.40;;;832.67;;
15788;SDS011;59075;50.670;6.474;2022-08-01T15:00:38;897.90;;;836.93;;
15788;SDS011;59075;50.670;6.474;2022-08-01T15:03:05;896.83;;;835.87;;
15788;SDS011;59075;50.670;6.474;2022-08-01T15:05:31;900.97;;;839.80;;
15788;SDS011;59075;50.670;6.474;2022-08-01T15:07:58;901.20;;;840.20;;
15788;SDS011;59075;50.670;6.474;2022-08-01T15:10:25;895.83;;;834.90;;
15788;SDS011;59075;50.670;6.474;2022-08-01T15:12:53;892.40;;;831.80;;
15788;SDS011;59075;50.670;6.474;2022-08-01T15:15:20;885.30;;;825.00;;
15788;SDS011;59075;50.670;6.474;2022-08-01T15:17:47;891.77;;;831.20;;
15788;SDS011;59075;50.670;6.474;2022-08-01T15:20:14;898.37;;;837.37;;
15788;SDS011;59075;50.670;6.474;2022-08-01T15:22:41;901.20;;;840.23;;
15788;SDS011;59075;50.670;6.474;2022-08-01T15:25:08;889.50;;;829.03;;
15788;SDS011;59075;50.670;6.474;2022-08-01T15:27:35;893.63;;;832.90;;
15788;SDS011;59075;50.670;6.474;2022-08-01T15:30:03;898.90;;;837.53;;
15788;SDS011;59075;50.670;6.474;2022-08-01T15:32:30;898.17;;;837.30;;
15788;SDS011;59075;50.670;6.474;2022-08-01T15:34:57;884.20;;;823.80;;
15788;SDS011;59075;50.670;6.474;2022-08-01T15:37:25;898.70;;;837.60;;
15788;SDS011;59075;50.670;6.474;2022-08-01T15:39:51;891.57;;;830.90;;
15788;SDS011;59075;50.670;6.474;2022-08-01T15:42:18;890.50;;;829.93;;
15788;SDS011;59075;50.670;6.474;2022-08-01T15:44:45;893.50;;;832.77;;
15788;SDS011;59075;50.670;6.474;2022-08-01T15:47:13;891.20;;;830.83;;
15788;SDS011;59075;50.670;6.474;2022-08-01T15:49:40;896.77;;;835.90;;
15788;SDS011;59075;50.670;6.474;2022-08-01T15:52:07;899.23;;;838.33;;
15788;SDS011;59075;50.670;6.474;2022-08-01T15:54:34;894.87;;;833.93;;
15788;SDS011;59075;50.670;6.474;2022-08-01T15:57:01;891.67;;;831.03;;
15788;SDS011;59075;50.670;6.474;2022-08-01T15:59:28;888.93;;;828.27;;
15788;SDS011;59075;50.670;6.474;2022-08-01T16:01:55;885.60;;;825.13;;
15788;SDS011;59075;50.670;6.474;2022-08-01T16:04:23;887.37;;;826.93;;
15788;SDS011;59075;50.670;6.474;2022-08-01T16:06:50;887.17;;;826.60;;
15788;SDS011;59075;50.670;6.474;2022-08-01T16:09:16;889.00;;;828.17;;
15788;SDS011;59075;50.670;6.474;2022-08-01T16:11:43;891.73;;;831.10;;
15788;SDS011;59075;50.670;6.474;2022-08-01T16:14:10;889.90;;;829.30;;
15788;SDS011;59075;50.670;6.474;2022-08-01T16:16:37;884.00;;;823.90;;
15788;SDS011;59075;50.670;6.474;2022-08-01T16:19:04;885.93;;;825.07;;
15788;SDS011;59075;50.670;6.474;2022-08-01T16:21:32;890.33;;;829.77;;
15788;SDS011;59075;50.670;6.474;2022-08-01T16:23:58;881.67;;;821.80;;
15788;SDS011;59075;50.670;6.474;2022-08-01T16:26:25;891.27;;;830.73;;
15788;SDS011;59075;50.670;6.474;2022-08-01T16:28:52;886.60;;;826.03;;
15788;SDS011;59075;50.670;6.474;2022-08-01T16:31:18;891.97;;;831.27;;
15788;SDS011;59075;50.670;6.474;2022-08-01T16:33:45;887.47;;;827.10;;
15788;SDS011;59075;50.670;6.474;2022-08-01T16:36:12;882.70;;;822.50;;
15788;SDS011;59075;50.670;6.474;2022-08-01T16:38:41;887.03;;;826.87;;
15788;SDS011;59075;50.670;6.474;2022-08-01T16:41:08;891.77;;;831.07;;
15788;SDS011;59075;50.670;6.474;2022-08-01T16:43:37;899.90;;;839.00;;
15788;SDS011;59075;50.670;6.474;2022-08-01T16:46:05;899.07;;;838.07;;
15788;SDS011;59075;50.670;6.474;2022-08-01T16:48:32;882.53;;;822.40;;
15788;SDS011;59075;50.670;6.474;2022-08-01T16:50:58;899.97;;;839.13;;
15788;SDS011;59075;50.670;6.474;2022-08-01T16:53:25;883.47;;;823.23;;
15788;SDS011;59075;50.670;6.474;2022-08-01T16:55:53;886.60;;;826.27;;
15788;SDS011;59075;50.670;6.474;2022-08-01T16:58:20;888.63;;;828.50;;
15788;SDS011;59075;50.670;6.474;2022-08-01T17:00:47;886.40;;;826.13;;
15788;SDS011;59075;50.670;6.474;2022-08-01T17:03:17;879.73;;;819.53;;
15788;SDS011;59075;50.670;6.474;2022-08-01T17:05:44;888.63;;;828.20;;
15788;SDS011;59075;50.670;6.474;2022-08-01T17:08:11;883.73;;;823.57;;
15788;SDS011;59075;50.670;6.474;2022-08-01T17:10:38;888.40;;;827.97;;
15788;SDS011;59075;50.670;6.474;2022-08-01T17:13:06;892.20;;;831.60;;
15788;SDS011;59075;50.670;6.474;2022-08-01T17:15:33;882.17;;;822.07;;
15788;SDS011;59075;50.670;6.474;2022-08-01T17:18:00;883.13;;;823.07;;
15788;SDS011;59075;50.670;6.474;2022-08-01T17:20:27;889.83;;;829.50;;
15788;SDS011;59075;50.670;6.474;2022-08-01T17:22:54;881.63;;;821.60;;
15788;SDS011;59075;50.670;6.474;2022-08-01T17:25:21;889.43;;;829.03;;
15788;SDS011;59075;50.670;6.474;2022-08-01T17:27:48;882.23;;;821.87;;
15788;SDS011;59075;50.670;6.474;2022-08-01T17:30:18;876.17;;;816.40;;
15788;SDS011;59075;50.670;6.474;2022-08-01T17:32:45;875.10;;;815.30;;
15788;SDS011;59075;50.670;6.474;2022-08-01T17:35:12;880.00;;;820.03;;
15788;SDS011;59075;50.670;6.474;2022-08-01T17:37:40;892.10;;;831.63;;
15788;SDS011;59075;50.670;6.474;2022-08-01T17:40:07;887.07;;;826.80;;
15788;SDS011;59075;50.670;6.474;2022-08-01T17:42:36;889.47;;;829.20;;
15788;SDS011;59075;50.670;6.474;2022-08-01T17:45:04;873.37;;;813.63;;
15788;SDS011;59075;50.670;6.474;2022-08-01T17:47:33;898.67;;;837.77;;
15788;SDS011;59075;50.670;6.474;2022-08-01T17:50:00;884.37;;;823.73;;
15788;SDS011;59075;50.670;6.474;2022-08-01T17:52:28;876.83;;;816.93;;
15788;SDS011;59075;50.670;6.474;2022-08-01T17:54:55;874.67;;;814.97;;
15788;SDS011;59075;50.670;6.474;2022-08-01T17:57:22;871.57;;;811.87;;
15788;SDS011;59075;50.670;6.474;2022-08-01T17:59:49;863.40;;;803.87;;
15788;SDS011;59075;50.670;6.474;2022-08-01T18:02:16;887.30;;;827.17;;
15788;SDS011;59075;50.670;6.474;2022-08-01T18:04:45;876.40;;;816.53;;
15788;SDS011;59075;50.670;6.474;2022-08-01T18:07:11;873.57;;;813.80;;
15788;SDS011;59075;50.670;6.474;2022-08-01T18:09:38;1016.80;;;950.13;;
15788;SDS011;59075;50.670;6.474;2022-08-01T18:12:05;894.40;;;833.83;;
15788;SDS011;59075;50.670;6.474;2022-08-01T18:14:32;899.13;;;837.97;;
15788;SDS011;59075;50.670;6.474;2022-08-01T18:16:59;882.97;;;822.67;;
15788;SDS011;59075;50.670;6.474;2022-08-01T18:19:26;880.33;;;820.23;;
15788;SDS011;59075;50.670;6.474;2022-08-01T18:21:54;879.30;;;819.30;;
15788;SDS011;59075;50.670;6.474;2022-08-01T18:24:21;879.63;;;819.53;;
15788;SDS011;59075;50.670;6.474;2022-08-01T18:26:49;882.50;;;822.57;;
15788;SDS011;59075;50.670;6.474;2022-08-01T18:29:17;885.97;;;825.10;;
15788;SDS011;59075;50.670;6.474;2022-08-01T18:31:44;893.30;;;832.87;;
15788;SDS011;59075;50.670;6.474;2022-08-01T18:34:11;884.17;;;824.07;;
15788;SDS011;59075;50.670;6.474;2022-08-01T18:36:38;880.80;;;820.73;;
15788;SDS011;59075;50.670;6.474;2022-08-01T18:39:06;879.47;;;819.13;;
15788;SDS011;59075;50.670;6.474;2022-08-01T18:41:34;871.27;;;811.37;;
15788;SDS011;59075;50.670;6.474;2022-08-01T18:44:02;875.70;;;815.87;;
15788;SDS011;59075;50.670;6.474;2022-08-01T18:46:31;875.70;;;815.80;;
15788;SDS011;59075;50.670;6.474;2022-08-01T18:48:57;881.63;;;821.50;;
15788;SDS011;59075;50.670;6.474;2022-08-01T18:51:24;881.43;;;821.27;;
15788;SDS011;59075;50.670;6.474;2022-08-01T18:53:52;880.43;;;820.37;;
15788;SDS011;59075;50.670;6.474;2022-08-01T18:56:23;888.13;;;827.43;;
15788;SDS011;59075;50.670;6.474;2022-08-01T18:58:49;874.67;;;814.87;;
15788;SDS011;59075;50.670;6.474;2022-08-01T19:01:17;877.10;;;817.27;;
15788;SDS011;59075;50.670;6.474;2022-08-01T19:03:44;875.77;;;815.73;;
15788;SDS011;59075;50.670;6.474;2022-08-01T19:06:11;885.37;;;825.17;;
15788;SDS011;59075;50.670;6.474;2022-08-01T19:08:38;875.27;;;815.53;;
15788;SDS011;59075;50.670;6.474;2022-08-01T19:11:05;867.43;;;808.07;;